sensor_id;sensor_type;location;lat;lon;timestamp;pressure;altitude;pressure_sealevel;temperature;humidity
56456;BME280;42354;53.218;6.564;2022-09-16T00:01:25;100486.81;;;11.31;100.00
56456;BME280;42354;53.218;6.564;2022-09-16T00:03:55;100488.66;;;11.30;100.00
56456;BME280;42354;53.218;6.564;2022-09-16T00:06:24;100482.50;;;11.28;100.00
56456;BME280;42354;53.218;6.564;2022-09-16T00:08:53;100484.31;;;11.28;100.00
56456;BME280;42354;53.218;6.564;2022-09-16T00:11:18;100492.41;;;11.28;100.00
56456;BME280;42354;53.218;6.564;2022-09-16T00:13:44;100496.00;;;11.28;100.00
56456;BME280;42354;53.218;6.564;2022-09-16T00:16:15;100503.13;;;11.29;100.00
56456;BME280;42354;53.218;6.564;2022-09-16T00:18:41;100511.91;;;11.33;100.00
56456;BME280;42354;53.218;6.564;2022-09-16T00:21:08;100490.69;;;11.27;100.00
56456;BME280;42354;53.218;6.564;2022-09-16T00:23:34;100496.84;;;11.29;100.00
56456;BME280;42354;53.218;6.564;2022-09-16T00:25:59;100477.28;;;11.25;100.00
56456;BME280;42354;53.218;6.564;2022-09-16T00:28:25;100495.03;;;11.29;100.00
56456;BME280;42354;53.218;6.564;2022-09-16T00:30:51;100493.00;;;11.33;100.00
56456;BME280;42354;53.218;6.564;2022-09-16T00:33:17;100490.09;;;11.36;100.00
56456;BME280;42354;53.218;6.564;2022-09-16T00:35:42;100491.16;;;11.34;100.00
56456;BME280;42354;53.218;6.564;2022-09-16T00:38:08;100490.19;;;11.35;100.00
56456;BME280;42354;53.218;6.564;2022-09-16T00:40:34;100482.66;;;11.40;100.00
56456;BME280;42354;53.218;6.564;2022-09-16T00:42:59;100481.91;;;11.38;100.00
56456;BME280;42354;53.218;6.564;2022-09-16T00:45:26;100478.44;;;11.36;100.00
56456;BME280;42354;53.218;6.564;2022-09-16T00:48:05;100485.38;;;11.40;100.00
56456;BME280;42354;53.218;6.564;2022-09-16T00:50:37;100491.63;;;11.40;100.00
56456;BME280;42354;53.218;6.564;2022-09-16T00:53:08;100474.97;;;11.34;100.00
56456;BME280;42354;53.218;6.564;2022-09-16T00:55:37;100480.25;;;11.35;100.00
56456;BME280;42354;53.218;6.564;2022-09-16T00:58:09;100482.28;;;11.32;100.00
56456;BME280;42354;53.218;6.564;2022-09-16T01:00:36;100484.31;;;11.28;100.00
56456;BME280;42354;53.218;6.564;2022-09-16T01:03:03;100477.56;;;11.21;100.00
56456;BME280;42354;53.218;6.564;2022-09-16T01:05:29;100472.47;;;11.16;100.00
56456;BME280;42354;53.218;6.564;2022-09-16T01:07:55;100478.94;;;11.14;100.00
56456;BME280;42354;53.218;6.564;2022-09-16T01:10:24;100482.41;;;11.16;100.00
56456;BME280;42354;53.218;6.564;2022-09-16T01:12:55;100478.72;;;11.17;100.00
56456;BME280;42354;53.218;6.564;2022-09-16T01:15:30;100479.03;;;11.12;100.00
56456;BME280;42354;53.218;6.564;2022-09-16T01:18:13;100480.00;;;11.11;100.00
56456;BME280;42354;53.218;6.564;2022-09-16T01:21:12;100474.09;;;11.05;100.00
56456;BME280;42354;53.218;6.564;2022-09-16T01:37:16;100483.16;;;11.04;100.00
56456;BME280;42354;53.218;6.564;2022-09-16T01:45:21;100485.00;;;11.17;100.00
56456;BME280;42354;53.218;6.564;2022-09-16T01:50:41;100473.44;;;11.15;100.00
56456;BME280;42354;53.218;6.564;2022-09-16T01:55:54;100481.72;;;11.26;100.00
56456;BME280;42354;53.218;6.564;2022-09-16T01:58:26;100480.56;;;11.30;100.00
56456;BME280;42354;53.218;6.564;2022-09-16T02:00:58;100474.09;;;11.33;100.00
56456;BME280;42354;53.218;6.564;2022-09-16T02:03:32;100473.22;;;11.33;100.00
56456;BME280;42354;53.218;6.564;2022-09-16T02:06:09;100482.97;;;11.35;100.00
56456;BME280;42354;53.218;6.564;2022-09-16T02:08:48;100480.16;;;11.37;100.00
56456;BME280;42354;53.218;6.564;2022-09-16T02:11:17;100474.00;;;11.35;100.00
56456;BME280;42354;53.218;6.564;2022-09-16T02:17:00;100482.69;;;11.25;100.00
56456;BME280;42354;53.218;6.564;2022-09-16T02:19:35;100472.47;;;11.16;100.00
56456;BME280;42354;53.218;6.564;2022-09-16T02:22:07;100478.25;;;11.10;100.00
56456;BME280;42354;53.218;6.564;2022-09-16T02:24:35;100476.91;;;11.03;100.00
56456;BME280;42354;53.218;6.564;2022-09-16T02:27:04;100477.28;;;10.97;100.00
56456;BME280;42354;53.218;6.564;2022-09-16T02:29:38;100467.66;;;10.93;100.00
56456;BME280;42354;53.218;6.564;2022-09-16T02:32:08;100467.75;;;10.91;100.00
56456;BME280;42354;53.218;6.564;2022-09-16T02:34:41;100469.75;;;10.88;100.00
56456;BME280;42354;53.218;6.564;2022-09-16T02:37:12;100473.63;;;10.84;100.00
56456;BME280;42354;53.218;6.564;2022-09-16T02:39:41;100485.19;;;10.86;100.00
56456;BME280;42354;53.218;6.564;2022-09-16T02:42:10;100505.25;;;10.96;100.00
56456;BME280;42354;53.218;6.564;2022-09-16T02:44:36;100505.34;;;10.94;100.00
56456;BME280;42354;53.218;6.564;2022-09-16T02:47:11;100501.19;;;10.89;100.00
56456;BME280;42354;53.218;6.564;2022-09-16T02:50:00;100489.34;;;10.91;100.00
56456;BME280;42354;53.218;6.564;2022-09-16T02:55:55;100488.94;;;10.97;100.00
56456;BME280;42354;53.218;6.564;2022-09-16T02:58:23;100483.66;;;10.96;100.00
56456;BME280;42354;53.218;6.564;2022-09-16T03:00:53;100478.16;;;10.97;100.00
56456;BME280;42354;53.218;6.564;2022-09-16T03:03:19;100472.84;;;10.96;100.00
56456;BME280;42354;53.218;6.564;2022-09-16T03:08:42;100454.16;;;10.93;100.00
56456;BME280;42354;53.218;6.564;2022-09-16T03:22:43;100463.59;;;10.86;100.00
56456;BME280;42354;53.218;6.564;2022-09-16T03:25:38;100464.56;;;10.85;100.00
56456;BME280;42354;53.218;6.564;2022-09-16T03:28:17;100461.09;;;10.83;100.00
56456;BME280;42354;53.218;6.564;2022-09-16T03:33:30;100459.81;;;10.74;100.00
56456;BME280;42354;53.218;6.564;2022-09-16T03:35:59;100457.41;;;10.70;100.00
56456;BME280;42354;53.218;6.564;2022-09-16T03:38:26;100462.81;;;10.70;100.00
56456;BME280;42354;53.218;6.564;2022-09-16T03:40:53;100467.25;;;10.71;100.00
56456;BME280;42354;53.218;6.564;2022-09-16T03:43:19;100461.06;;;10.69;100.00
56456;BME280;42354;53.218;6.564;2022-09-16T03:45:44;100465.59;;;10.68;100.00
56456;BME280;42354;53.218;6.564;2022-09-16T03:48:11;100468.38;;;10.67;100.00
56456;BME280;42354;53.218;6.564;2022-09-16T03:50:37;100464.91;;;10.64;100.00
56456;BME280;42354;53.218;6.564;2022-09-16T03:53:02;100469.53;;;10.62;100.00
56456;BME280;42354;53.218;6.564;2022-09-16T03:55:28;100454.59;;;10.57;100.00
56456;BME280;42354;53.218;6.564;2022-09-16T03:57:53;100468.09;;;10.57;100.00
56456;BME280;42354;53.218;6.564;2022-09-16T04:00:19;100462.50;;;10.60;100.00
56456;BME280;42354;53.218;6.564;2022-09-16T04:02:44;100470.31;;;10.64;100.00
56456;BME280;42354;53.218;6.564;2022-09-16T04:05:10;100462.50;;;10.60;100.00
56456;BME280;42354;53.218;6.564;2022-09-16T04:07:36;100463.28;;;10.62;100.00
56456;BME280;42354;53.218;6.564;2022-09-16T04:10:02;100468.00;;;10.58;100.00
56456;BME280;42354;53.218;6.564;2022-09-16T04:12:28;100461.81;;;10.56;100.00
56456;BME280;42354;53.218;6.564;2022-09-16T04:14:53;100447.25;;;10.45;100.00
56456;BME280;42354;53.218;6.564;2022-09-16T04:17:19;100458.91;;;10.45;100.00
56456;BME280;42354;53.218;6.564;2022-09-16T04:19:44;100456.50;;;10.41;100.00
56456;BME280;42354;53.218;6.564;2022-09-16T04:22:09;100459.53;;;10.34;100.00
56456;BME280;42354;53.218;6.564;2022-09-16T04:24:35;100456.31;;;10.28;100.00
56456;BME280;42354;53.218;6.564;2022-09-16T04:27:01;100450.25;;;10.24;100.00
56456;BME280;42354;53.218;6.564;2022-09-16T04:29:26;100446.06;;;10.19;100.00
56456;BME280;42354;53.218;6.564;2022-09-16T04:31:53;100438.16;;;10.16;100.00
56456;BME280;42354;53.218;6.564;2022-09-16T04:34:18;100447.38;;;10.12;100.00
56456;BME280;42354;53.218;6.564;2022-09-16T04:36:44;100443.22;;;10.06;100.00
56456;BME280;42354;53.218;6.564;2022-09-16T04:39:09;100442.94;;;10.11;100.00
56456;BME280;42354;53.218;6.564;2022-09-16T04:41:36;100442.78;;;10.14;100.00
56456;BME280;42354;53.218;6.564;2022-09-16T04:44:03;100454.88;;;10.22;100.00
56456;BME280;42354;53.218;6.564;2022-09-16T04:46:29;100449.47;;;10.22;100.00
56456;BME280;42354;53.218;6.564;2022-09-16T04:48:55;100444.75;;;10.26;100.00
56456;BME280;42354;53.218;6.564;2022-09-16T04:51:22;100446.81;;;10.37;100.00
56456;BME280;42354;53.218;6.564;2022-09-16T04:53:48;100440.91;;;10.46;100.00
56456;BME280;42354;53.218;6.564;2022-09-16T04:56:20;100449.28;;;10.55;100.00
56456;BME280;42354;53.218;6.564;2022-09-16T04:58:48;100448.34;;;10.56;100.00
56456;BME280;42354;53.218;6.564;2022-09-16T05:01:17;100457.00;;;10.61;100.00
56456;BME280;42354;53.218;6.564;2022-09-16T05:03:45;100451.44;;;10.64;100.00
56456;BME280;42354;53.218;6.564;2022-09-16T05:06:18;100453.25;;;10.64;100.00
56456;BME280;42354;53.218;6.564;2022-09-16T05:08:43;100453.94;;;10.68;100.00
56456;BME280;42354;53.218;6.564;2022-09-16T05:11:11;100448.53;;;10.68;100.00
56456;BME280;42354;53.218;6.564;2022-09-16T05:13:37;100446.81;;;10.67;100.00
56456;BME280;42354;53.218;6.564;2022-09-16T05:16:08;100452.28;;;10.65;100.00
56456;BME280;42354;53.218;6.564;2022-09-16T05:18:35;100455.09;;;10.63;100.00
56456;BME280;42354;53.218;6.564;2022-09-16T05:21:03;100455.28;;;10.60;100.00
56456;BME280;42354;53.218;6.564;2022-09-16T05:23:29;100459.81;;;10.60;100.00
56456;BME280;42354;53.218;6.564;2022-09-16T05:26:04;100461.81;;;10.56;100.00
56456;BME280;42354;53.218;6.564;2022-09-16T05:28:31;100460.09;;;10.55;100.00
56456;BME280;42354;53.218;6.564;2022-09-16T05:31:20;100474.34;;;10.57;100.00
56456;BME280;42354;53.218;6.564;2022-09-16T05:33:59;100474.34;;;10.57;100.00
56456;BME280;42354;53.218;6.564;2022-09-16T05:36:27;100472.31;;;10.61;100.00
56456;BME280;42354;53.218;6.564;2022-09-16T05:38:53;100463.97;;;10.65;100.00
56456;BME280;42354;53.218;6.564;2022-09-16T05:41:18;100463.00;;;10.67;100.00
56456;BME280;42354;53.218;6.564;2022-09-16T05:43:43;100463.59;;;10.72;100.00
56456;BME280;42354;53.218;6.564;2022-09-16T05:46:17;100468.88;;;10.73;100.00
56456;BME280;42354;53.218;6.564;2022-09-16T05:48:42;100469.75;;;10.74;100.00
56456;BME280;42354;53.218;6.564;2022-09-16T05:51:09;100469.75;;;10.74;100.00
56456;BME280;42354;53.218;6.564;2022-09-16T05:53:38;100471.47;;;10.75;100.00
56456;BME280;42354;53.218;6.564;2022-09-16T05:56:09;100471.19;;;10.79;100.00
56456;BME280;42354;53.218;6.564;2022-09-16T05:58:35;100469.00;;;10.86;100.00
56456;BME280;42354;53.218;6.564;2022-09-16T06:01:04;100469.75;;;10.88;100.00
56456;BME280;42354;53.218;6.564;2022-09-16T06:03:31;100479.59;;;10.89;100.00
56456;BME280;42354;53.218;6.564;2022-09-16T06:08:26;100469.19;;;10.97;100.00
56456;BME280;42354;53.218;6.564;2022-09-16T06:10:52;100467.56;;;11.09;100.00
56456;BME280;42354;53.218;6.564;2022-09-16T06:13:17;100467.66;;;11.21;100.00
56456;BME280;42354;53.218;6.564;2022-09-16T06:15:52;100439.00;;;11.19;99.35
56456;BME280;42354;53.218;6.564;2022-09-16T06:18:23;100457.59;;;11.38;99.05
56456;BME280;42354;53.218;6.564;2022-09-16T06:20:50;100456.53;;;11.40;98.93
56456;BME280;42354;53.218;6.564;2022-09-16T06:23:16;100460.56;;;11.47;98.40
56456;BME280;42354;53.218;6.564;2022-09-16T06:25:42;100464.03;;;11.49;98.50
56456;BME280;42354;53.218;6.564;2022-09-16T06:28:08;100465.47;;;11.55;98.46
56456;BME280;42354;53.218;6.564;2022-09-16T06:30:35;100460.84;;;11.57;97.75
56456;BME280;42354;53.218;6.564;2022-09-16T06:33:01;100458.50;;;11.65;97.91
56456;BME280;42354;53.218;6.564;2022-09-16T06:35:27;100463.50;;;11.71;97.97
56456;BME280;42354;53.218;6.564;2022-09-16T06:37:54;100458.41;;;11.81;98.09
56456;BME280;42354;53.218;6.564;2022-09-16T06:40:19;100460.75;;;12.00;96.90
56456;BME280;42354;53.218;6.564;2022-09-16T06:42:45;100464.03;;;12.17;95.85
56456;BME280;42354;53.218;6.564;2022-09-16T06:45:10;100461.81;;;12.37;93.77
56456;BME280;42354;53.218;6.564;2022-09-16T06:47:36;100462.19;;;12.57;93.56
56456;BME280;42354;53.218;6.564;2022-09-16T06:50:03;100454.72;;;12.74;92.51
56456;BME280;42354;53.218;6.564;2022-09-16T06:52:31;100463.94;;;12.84;91.87
56456;BME280;42354;53.218;6.564;2022-09-16T06:54:57;100455.38;;;12.90;90.94
56456;BME280;42354;53.218;6.564;2022-09-16T06:57:22;100462.09;;;12.97;90.60
56456;BME280;42354;53.218;6.564;2022-09-16T06:59:49;100462.19;;;13.08;90.79
56456;BME280;42354;53.218;6.564;2022-09-16T07:02:15;100456.16;;;13.17;89.60
56456;BME280;42354;53.218;6.564;2022-09-16T07:04:42;100457.66;;;13.21;88.21
56456;BME280;42354;53.218;6.564;2022-09-16T07:07:07;100473.56;;;13.13;88.35
56456;BME280;42354;53.218;6.564;2022-09-16T07:09:33;100462.63;;;13.02;88.84
56456;BME280;42354;53.218;6.564;2022-09-16T07:11:58;100470.66;;;12.91;89.34
56456;BME280;42354;53.218;6.564;2022-09-16T07:14:24;100475.09;;;12.79;90.66
56456;BME280;42354;53.218;6.564;2022-09-16T07:16:50;100466.63;;;12.71;91.68
56456;BME280;42354;53.218;6.564;2022-09-16T07:19:16;100463.69;;;12.62;92.50
56456;BME280;42354;53.218;6.564;2022-09-16T07:21:41;100461.53;;;12.54;92.96
56456;BME280;42354;53.218;6.564;2022-09-16T07:24:08;100463.06;;;12.58;92.55
56456;BME280;42354;53.218;6.564;2022-09-16T07:26:35;100469.44;;;12.57;91.89
56456;BME280;42354;53.218;6.564;2022-09-16T07:29:03;100467.06;;;12.65;91.98
56456;BME280;42354;53.218;6.564;2022-09-16T07:31:31;100475.09;;;12.79;91.12
56456;BME280;42354;53.218;6.564;2022-09-16T07:33:58;100483.09;;;12.94;90.54
56456;BME280;42354;53.218;6.564;2022-09-16T07:36:28;100481.81;;;12.99;90.24
56456;BME280;42354;53.218;6.564;2022-09-16T07:38:55;100472.81;;;13.11;89.63
56456;BME280;42354;53.218;6.564;2022-09-16T07:41:27;100482.88;;;13.35;87.55
56456;BME280;42354;53.218;6.564;2022-09-16T07:43:54;100476.88;;;13.55;87.16
56456;BME280;42354;53.218;6.564;2022-09-16T07:46:20;100469.13;;;13.74;85.17
56456;BME280;42354;53.218;6.564;2022-09-16T07:48:47;100475.84;;;14.05;84.15
56456;BME280;42354;53.218;6.564;2022-09-16T07:51:18;100471.84;;;14.22;81.47
56456;BME280;42354;53.218;6.564;2022-09-16T07:53:44;100476.88;;;14.39;81.23
56456;BME280;42354;53.218;6.564;2022-09-16T07:56:18;100482.25;;;14.52;77.84
56456;BME280;42354;53.218;6.564;2022-09-16T07:58:45;100475.94;;;14.51;78.61
56456;BME280;42354;53.218;6.564;2022-09-16T08:01:12;100482.00;;;14.55;78.64
56456;BME280;42354;53.218;6.564;2022-09-16T08:03:40;100472.84;;;14.45;78.40
56456;BME280;42354;53.218;6.564;2022-09-16T08:06:10;100476.31;;;14.23;78.68
56456;BME280;42354;53.218;6.564;2022-09-16T08:08:37;100481.31;;;14.16;79.75
56456;BME280;42354;53.218;6.564;2022-09-16T08:11:03;100479.38;;;14.18;80.03
56456;BME280;42354;53.218;6.564;2022-09-16T08:13:30;100489.88;;;14.23;80.78
56456;BME280;42354;53.218;6.564;2022-09-16T08:16:00;100479.03;;;14.47;78.28
56456;BME280;42354;53.218;6.564;2022-09-16T08:18:26;100485.34;;;14.59;76.13
56456;BME280;42354;53.218;6.564;2022-09-16T08:20:51;100485.63;;;14.67;74.34
56456;BME280;42354;53.218;6.564;2022-09-16T08:23:17;100488.63;;;14.86;69.71
56456;BME280;42354;53.218;6.564;2022-09-16T08:25:43;100477.28;;;14.92;68.91
56456;BME280;42354;53.218;6.564;2022-09-16T08:28:12;100493.38;;;15.06;65.70
56456;BME280;42354;53.218;6.564;2022-09-16T08:30:39;100470.66;;;15.19;64.44
56456;BME280;42354;53.218;6.564;2022-09-16T08:33:04;100483.50;;;15.28;62.61
56456;BME280;42354;53.218;6.564;2022-09-16T08:35:30;100472.50;;;15.40;62.30
56456;BME280;42354;53.218;6.564;2022-09-16T08:37:55;100480.78;;;15.50;61.82
56456;BME280;42354;53.218;6.564;2022-09-16T08:40:22;100472.56;;;15.63;60.43
56456;BME280;42354;53.218;6.564;2022-09-16T08:50:58;100457.78;;;15.88;58.16
56456;BME280;42354;53.218;6.564;2022-09-16T08:55:50;100489.28;;;16.01;58.32
56456;BME280;42354;53.218;6.564;2022-09-16T08:58:22;100469.56;;;16.20;57.61
56456;BME280;42354;53.218;6.564;2022-09-16T09:00:53;100482.53;;;16.28;56.52
56456;BME280;42354;53.218;6.564;2022-09-16T09:05:58;100467.50;;;16.13;58.34
56456;BME280;42354;53.218;6.564;2022-09-16T09:08:44;100488.25;;;15.70;59.42
56456;BME280;42354;53.218;6.564;2022-09-16T09:11:35;100491.03;;;15.46;60.71
56456;BME280;42354;53.218;6.564;2022-09-16T09:14:21;100491.53;;;15.40;61.22
56456;BME280;42354;53.218;6.564;2022-09-16T09:16:58;100495.97;;;15.53;63.24
56456;BME280;42354;53.218;6.564;2022-09-16T09:22:19;100497.56;;;15.55;61.06
56456;BME280;42354;53.218;6.564;2022-09-16T09:24:58;100494.84;;;15.55;60.91
56456;BME280;42354;53.218;6.564;2022-09-16T09:27:30;100501.34;;;15.65;59.91
56456;BME280;42354;53.218;6.564;2022-09-16T09:30:07;100491.94;;;15.81;59.67
56456;BME280;42354;53.218;6.564;2022-09-16T09:40:34;100495.13;;;16.29;55.06
56456;BME280;42354;53.218;6.564;2022-09-16T09:43:24;100500.63;;;16.50;54.81
56456;BME280;42354;53.218;6.564;2022-09-16T09:46:00;100467.16;;;16.59;55.20
56456;BME280;42354;53.218;6.564;2022-09-16T09:48:47;100502.19;;;16.31;53.87
56456;BME280;42354;53.218;6.564;2022-09-16T09:51:23;100518.50;;;15.88;58.33
56456;BME280;42354;53.218;6.564;2022-09-16T09:53:52;100514.88;;;15.54;63.10
56456;BME280;42354;53.218;6.564;2022-09-16T09:56:27;100503.13;;;15.31;65.85
56456;BME280;42354;53.218;6.564;2022-09-16T10:01:40;100506.09;;;15.28;66.42
56456;BME280;42354;53.218;6.564;2022-09-16T10:04:13;100504.50;;;15.26;69.33
56456;BME280;42354;53.218;6.564;2022-09-16T10:06:40;100483.72;;;14.91;69.71
56456;BME280;42354;53.218;6.564;2022-09-16T10:09:11;100483.69;;;14.80;69.53
56456;BME280;42354;53.218;6.564;2022-09-16T10:11:46;100488.91;;;14.94;68.82
56456;BME280;42354;53.218;6.564;2022-09-16T10:14:25;100497.53;;;14.99;70.45
56456;BME280;42354;53.218;6.564;2022-09-16T10:16:52;100489.44;;;15.33;66.88
56456;BME280;42354;53.218;6.564;2022-09-16T10:19:23;100490.72;;;15.62;65.76
56456;BME280;42354;53.218;6.564;2022-09-16T10:21:51;100485.25;;;15.73;65.84
56456;BME280;42354;53.218;6.564;2022-09-16T10:24:33;100453.75;;;15.71;63.67
56456;BME280;42354;53.218;6.564;2022-09-16T10:27:02;100481.81;;;15.60;63.00
56456;BME280;42354;53.218;6.564;2022-09-16T10:29:41;100482.44;;;15.64;62.93
56456;BME280;42354;53.218;6.564;2022-09-16T10:32:08;100487.00;;;15.63;64.03
56456;BME280;42354;53.218;6.564;2022-09-16T10:34:38;100445.56;;;15.37;64.10
56456;BME280;42354;53.218;6.564;2022-09-16T10:39:37;100493.34;;;14.95;62.36
56456;BME280;42354;53.218;6.564;2022-09-16T10:42:15;100502.00;;;15.00;65.40
56456;BME280;42354;53.218;6.564;2022-09-16T10:44:41;100492.75;;;15.47;63.90
56456;BME280;42354;53.218;6.564;2022-09-16T10:47:26;100477.66;;;15.99;63.03
56456;BME280;42354;53.218;6.564;2022-09-16T10:49:54;100487.31;;;16.35;62.00
56456;BME280;42354;53.218;6.564;2022-09-16T10:52:26;100493.53;;;16.58;60.40
56456;BME280;42354;53.218;6.564;2022-09-16T10:54:54;100480.56;;;16.83;56.35
56456;BME280;42354;53.218;6.564;2022-09-16T11:00:03;100492.31;;;17.04;52.57
56456;BME280;42354;53.218;6.564;2022-09-16T11:05:51;100488.63;;;17.15;53.27
56456;BME280;42354;53.218;6.564;2022-09-16T11:08:45;100469.38;;;17.06;54.49
56456;BME280;42354;53.218;6.564;2022-09-16T11:11:40;100482.16;;;16.85;56.57
56456;BME280;42354;53.218;6.564;2022-09-16T11:14:12;100485.94;;;16.73;56.70
56456;BME280;42354;53.218;6.564;2022-09-16T11:30:05;100470.53;;;16.83;51.60
56456;BME280;42354;53.218;6.564;2022-09-16T11:33:16;100472.44;;;16.92;50.81
56456;BME280;42354;53.218;6.564;2022-09-16T11:36:13;100477.16;;;16.90;51.08
56456;BME280;42354;53.218;6.564;2022-09-16T11:49:45;100483.28;;;17.34;52.61
56456;BME280;42354;53.218;6.564;2022-09-16T11:57:52;100456.78;;;17.46;51.85
56456;BME280;42354;53.218;6.564;2022-09-16T12:00:19;100456.03;;;17.34;50.90
56456;BME280;42354;53.218;6.564;2022-09-16T12:05:39;100427.38;;;17.09;50.33
56456;BME280;42354;53.218;6.564;2022-09-16T12:10:50;100454.56;;;16.99;52.26
56456;BME280;42354;53.218;6.564;2022-09-16T12:13:21;100450.19;;;16.87;51.25
56456;BME280;42354;53.218;6.564;2022-09-16T12:15:51;100446.28;;;16.80;52.14
56456;BME280;42354;53.218;6.564;2022-09-16T12:18:25;100422.09;;;16.66;50.95
56456;BME280;42354;53.218;6.564;2022-09-16T12:21:19;100476.78;;;16.42;51.09
56456;BME280;42354;53.218;6.564;2022-09-16T12:23:52;100471.88;;;16.57;51.59
56456;BME280;42354;53.218;6.564;2022-09-16T12:27:08;100462.94;;;16.66;52.42
56456;BME280;42354;53.218;6.564;2022-09-16T12:29:43;100445.97;;;16.62;52.02
56456;BME280;42354;53.218;6.564;2022-09-16T12:32:21;100445.84;;;16.64;53.70
56456;BME280;42354;53.218;6.564;2022-09-16T12:35:14;100455.72;;;16.76;54.30
56456;BME280;42354;53.218;6.564;2022-09-16T12:37:46;100457.97;;;16.71;54.44
56456;BME280;42354;53.218;6.564;2022-09-16T13:02:40;100460.44;;;15.67;58.01
56456;BME280;42354;53.218;6.564;2022-09-16T13:05:16;100472.31;;;15.66;59.57
56456;BME280;42354;53.218;6.564;2022-09-16T13:07:48;100473.13;;;15.55;58.37
56456;BME280;42354;53.218;6.564;2022-09-16T13:10:30;100483.88;;;15.45;59.67
56456;BME280;42354;53.218;6.564;2022-09-16T13:13:06;100430.03;;;15.17;64.88
56456;BME280;42354;53.218;6.564;2022-09-16T13:15:35;100443.44;;;14.74;68.68
56456;BME280;42354;53.218;6.564;2022-09-16T13:21:21;100474.00;;;13.45;76.28
56456;BME280;42354;53.218;6.564;2022-09-16T13:26:40;100504.97;;;13.16;79.25
56456;BME280;42354;53.218;6.564;2022-09-16T13:31:56;100515.78;;;12.65;83.45
56456;BME280;42354;53.218;6.564;2022-09-16T13:34:22;100491.06;;;12.44;84.54
56456;BME280;42354;53.218;6.564;2022-09-16T13:36:48;100512.81;;;12.16;86.08
56456;BME280;42354;53.218;6.564;2022-09-16T13:39:30;100501.28;;;12.26;85.76
56456;BME280;42354;53.218;6.564;2022-09-16T13:41:56;100506.16;;;12.34;83.15
56456;BME280;42354;53.218;6.564;2022-09-16T13:44:47;100503.72;;;12.44;83.34
56456;BME280;42354;53.218;6.564;2022-09-16T13:50:00;100494.09;;;12.52;84.99
56456;BME280;42354;53.218;6.564;2022-09-16T13:54:54;100488.09;;;12.87;87.35
56456;BME280;42354;53.218;6.564;2022-09-16T14:00:17;100462.94;;;13.10;90.10
56456;BME280;42354;53.218;6.564;2022-09-16T14:03:10;100462.75;;;13.26;90.17
56456;BME280;42354;53.218;6.564;2022-09-16T14:05:42;100455.13;;;13.44;89.42
56456;BME280;42354;53.218;6.564;2022-09-16T14:08:27;100462.47;;;13.54;88.96
56456;BME280;42354;53.218;6.564;2022-09-16T14:14:11;100460.31;;;13.83;88.02
56456;BME280;42354;53.218;6.564;2022-09-16T14:16:44;100446.06;;;13.93;86.12
56456;BME280;42354;53.218;6.564;2022-09-16T14:19:30;100445.78;;;14.08;84.66
56456;BME280;42354;53.218;6.564;2022-09-16T14:22:17;100438.78;;;14.17;81.98
56456;BME280;42354;53.218;6.564;2022-09-16T14:24:44;100441.16;;;14.22;80.73
56456;BME280;42354;53.218;6.564;2022-09-16T14:29:58;100448.81;;;14.28;78.73
56456;BME280;42354;53.218;6.564;2022-09-16T14:32:31;100453.75;;;14.23;79.10
56456;BME280;42354;53.218;6.564;2022-09-16T14:35:03;100469.84;;;14.13;79.69
56456;BME280;42354;53.218;6.564;2022-09-16T14:37:33;100461.06;;;13.85;82.80
56456;BME280;42354;53.218;6.564;2022-09-16T14:40:09;100464.13;;;13.81;84.03
56456;BME280;42354;53.218;6.564;2022-09-16T14:42:36;100463.38;;;13.79;83.23
56456;BME280;42354;53.218;6.564;2022-09-16T14:45:03;100443.75;;;13.75;83.68
56456;BME280;42354;53.218;6.564;2022-09-16T14:50:06;100453.88;;;13.24;90.08
56456;BME280;42354;53.218;6.564;2022-09-16T14:52:34;100453.34;;;13.19;91.64
56456;BME280;42354;53.218;6.564;2022-09-16T14:55:00;100450.16;;;13.12;93.12
56456;BME280;42354;53.218;6.564;2022-09-16T14:57:29;100457.75;;;13.07;94.44
56456;BME280;42354;53.218;6.564;2022-09-16T14:59:56;100440.22;;;13.00;95.03
56456;BME280;42354;53.218;6.564;2022-09-16T15:02:39;100446.38;;;13.02;95.83
56456;BME280;42354;53.218;6.564;2022-09-16T15:07:36;100451.25;;;12.97;96.94
56456;BME280;42354;53.218;6.564;2022-09-16T15:10:21;100415.94;;;13.11;96.50
56456;BME280;42354;53.218;6.564;2022-09-16T15:12:53;100443.25;;;13.21;96.44
56456;BME280;42354;53.218;6.564;2022-09-16T15:18:29;100456.03;;;13.19;98.43
56456;BME280;42354;53.218;6.564;2022-09-16T15:23:38;100445.09;;;13.20;100.00
56456;BME280;42354;53.218;6.564;2022-09-16T15:26:17;100453.00;;;13.23;100.00
56456;BME280;42354;53.218;6.564;2022-09-16T15:28:51;100457.75;;;13.33;100.00
56456;BME280;42354;53.218;6.564;2022-09-16T15:31:34;100441.38;;;13.34;100.00
56456;BME280;42354;53.218;6.564;2022-09-16T15:34:04;100455.34;;;13.41;100.00
56456;BME280;42354;53.218;6.564;2022-09-16T15:36:38;100441.34;;;13.47;97.60
56456;BME280;42354;53.218;6.564;2022-09-16T15:39:19;100443.63;;;13.53;97.08
56456;BME280;42354;53.218;6.564;2022-09-16T15:41:45;100436.34;;;13.53;97.85
56456;BME280;42354;53.218;6.564;2022-09-16T15:44:15;100439.19;;;13.52;98.55
56456;BME280;42354;53.218;6.564;2022-09-16T15:46:44;100413.81;;;13.53;97.41
56456;BME280;42354;53.218;6.564;2022-09-16T15:49:11;100452.75;;;13.39;98.53
56456;BME280;42354;53.218;6.564;2022-09-16T15:51:44;100454.09;;;13.21;100.00
56456;BME280;42354;53.218;6.564;2022-09-16T15:56:50;100446.59;;;12.99;100.00
56456;BME280;42354;53.218;6.564;2022-09-16T15:59:25;100443.47;;;12.93;100.00
56456;BME280;42354;53.218;6.564;2022-09-16T16:01:54;100450.28;;;12.85;100.00
56456;BME280;42354;53.218;6.564;2022-09-16T16:04:25;100449.31;;;12.86;100.00